sensor_id;sensor_type;location;lat;lon;timestamp;temperature;humidity
16128;DHT22;8168;49.036;7.690;2023-05-10T00:01:06;14.10;99.90
16128;DHT22;8168;49.036;7.690;2023-05-10T00:03:36;14.10;99.90
16128;DHT22;8168;49.036;7.690;2023-05-10T00:06:07;14.10;99.90
16128;DHT22;8168;49.036;7.690;2023-05-10T00:08:38;14.10;99.90
16128;DHT22;8168;49.036;7.690;2023-05-10T00:11:08;14.10;99.90
16128;DHT22;8168;49.036;7.690;2023-05-10T00:13:39;14.10;99.90
16128;DHT22;8168;49.036;7.690;2023-05-10T00:16:10;14.10;99.90
16128;DHT22;8168;49.036;7.690;2023-05-10T00:18:45;14.10;99.90
16128;DHT22;8168;49.036;7.690;2023-05-10T00:21:15;14.10;99.90
16128;DHT22;8168;49.036;7.690;2023-05-10T00:23:46;14.10;99.90
16128;DHT22;8168;49.036;7.690;2023-05-10T00:26:16;14.10;99.90
16128;DHT22;8168;49.036;7.690;2023-05-10T00:28:47;14.10;99.90
16128;DHT22;8168;49.036;7.690;2023-05-10T00:31:18;14.10;99.90
16128;DHT22;8168;49.036;7.690;2023-05-10T00:33:48;14.10;99.90
16128;DHT22;8168;49.036;7.690;2023-05-10T00:36:19;14.10;99.90
16128;DHT22;8168;49.036;7.690;2023-05-10T00:38:49;14.10;99.90
16128;DHT22;8168;49.036;7.690;2023-05-10T00:41:20;14.10;99.90
16128;DHT22;8168;49.036;7.690;2023-05-10T00:43:52;14.20;99.90
16128;DHT22;8168;49.036;7.690;2023-05-10T00:46:22;14.20;99.90
16128;DHT22;8168;49.036;7.690;2023-05-10T00:48:53;14.20;99.90
16128;DHT22;8168;49.036;7.690;2023-05-10T00:51:24;14.30;99.90
16128;DHT22;8168;49.036;7.690;2023-05-10T00:53:55;14.30;99.90
16128;DHT22;8168;49.036;7.690;2023-05-10T00:56:26;14.30;99.90
16128;DHT22;8168;49.036;7.690;2023-05-10T00:58:58;14.30;99.90
16128;DHT22;8168;49.036;7.690;2023-05-10T01:01:30;14.30;99.90
16128;DHT22;8168;49.036;7.690;2023-05-10T01:04:01;14.40;99.90
16128;DHT22;8168;49.036;7.690;2023-05-10T01:06:31;14.40;99.90
16128;DHT22;8168;49.036;7.690;2023-05-10T01:09:02;14.40;99.90
16128;DHT22;8168;49.036;7.690;2023-05-10T01:11:34;14.40;99.90
16128;DHT22;8168;49.036;7.690;2023-05-10T01:14:06;14.40;99.90
16128;DHT22;8168;49.036;7.690;2023-05-10T01:16:39;14.40;99.90
16128;DHT22;8168;49.036;7.690;2023-05-10T01:19:17;14.40;99.90
16128;DHT22;8168;49.036;7.690;2023-05-10T01:25:46;14.30;99.90
16128;DHT22;8168;49.036;7.690;2023-05-10T01:33:31;14.30;99.90
16128;DHT22;8168;49.036;7.690;2023-05-10T01:36:23;14.30;99.90
16128;DHT22;8168;49.036;7.690;2023-05-10T01:39:06;14.30;99.90
16128;DHT22;8168;49.036;7.690;2023-05-10T01:41:49;14.10;99.90
16128;DHT22;8168;49.036;7.690;2023-05-10T01:47:05;14.20;99.90
16128;DHT22;8168;49.036;7.690;2023-05-10T01:49:49;14.10;99.90
16128;DHT22;8168;49.036;7.690;2023-05-10T01:52:25;14.10;99.90
16128;DHT22;8168;49.036;7.690;2023-05-10T01:55:06;14.10;99.90
16128;DHT22;8168;49.036;7.690;2023-05-10T01:57:40;14.10;99.90
16128;DHT22;8168;49.036;7.690;2023-05-10T02:00:12;14.00;99.90
16128;DHT22;8168;49.036;7.690;2023-05-10T02:02:48;14.00;99.90
16128;DHT22;8168;49.036;7.690;2023-05-10T02:05:20;14.00;99.90
16128;DHT22;8168;49.036;7.690;2023-05-10T02:07:52;14.00;99.90
16128;DHT22;8168;49.036;7.690;2023-05-10T02:10:23;14.00;99.90
16128;DHT22;8168;49.036;7.690;2023-05-10T02:12:55;14.00;99.90
16128;DHT22;8168;49.036;7.690;2023-05-10T02:15:29;14.00;99.90
16128;DHT22;8168;49.036;7.690;2023-05-10T02:18:00;14.00;99.90
16128;DHT22;8168;49.036;7.690;2023-05-10T02:20:33;14.00;99.90
16128;DHT22;8168;49.036;7.690;2023-05-10T02:23:05;14.00;99.90
16128;DHT22;8168;49.036;7.690;2023-05-10T02:25:37;14.00;99.90
16128;DHT22;8168;49.036;7.690;2023-05-10T02:28:10;14.00;99.90
16128;DHT22;8168;49.036;7.690;2023-05-10T02:30:42;14.10;99.90
16128;DHT22;8168;49.036;7.690;2023-05-10T02:33:13;14.10;99.90
16128;DHT22;8168;49.036;7.690;2023-05-10T02:35:45;14.10;99.90
16128;DHT22;8168;49.036;7.690;2023-05-10T02:38:19;14.10;99.90
16128;DHT22;8168;49.036;7.690;2023-05-10T02:40:51;14.10;99.90
16128;DHT22;8168;49.036;7.690;2023-05-10T02:43:23;14.10;99.90
16128;DHT22;8168;49.036;7.690;2023-05-10T02:45:54;14.10;99.90
16128;DHT22;8168;49.036;7.690;2023-05-10T02:48:24;14.20;99.90
16128;DHT22;8168;49.036;7.690;2023-05-10T02:50:58;14.10;99.90
16128;DHT22;8168;49.036;7.690;2023-05-10T02:53:32;14.10;99.90
16128;DHT22;8168;49.036;7.690;2023-05-10T02:56:13;14.10;99.90
16128;DHT22;8168;49.036;7.690;2023-05-10T02:58:45;14.10;99.90
16128;DHT22;8168;49.036;7.690;2023-05-10T03:01:16;14.10;99.90
16128;DHT22;8168;49.036;7.690;2023-05-10T03:03:47;14.10;99.90
16128;DHT22;8168;49.036;7.690;2023-05-10T03:06:17;14.10;99.90
16128;DHT22;8168;49.036;7.690;2023-05-10T03:08:48;14.20;99.90
16128;DHT22;8168;49.036;7.690;2023-05-10T03:11:47;14.10;99.90
16128;DHT22;8168;49.036;7.690;2023-05-10T03:20:06;14.20;99.90
16128;DHT22;8168;49.036;7.690;2023-05-10T03:22:45;14.20;99.90
16128;DHT22;8168;49.036;7.690;2023-05-10T03:25:19;14.20;99.90
16128;DHT22;8168;49.036;7.690;2023-05-10T03:27:51;14.20;99.90
16128;DHT22;8168;49.036;7.690;2023-05-10T03:30:22;14.20;99.90
16128;DHT22;8168;49.036;7.690;2023-05-10T03:32:54;14.20;99.90
16128;DHT22;8168;49.036;7.690;2023-05-10T03:35:25;14.20;99.90
16128;DHT22;8168;49.036;7.690;2023-05-10T03:37:55;14.20;99.90
16128;DHT22;8168;49.036;7.690;2023-05-10T03:40:26;14.20;99.90
16128;DHT22;8168;49.036;7.690;2023-05-10T03:42:59;14.10;99.90
16128;DHT22;8168;49.036;7.690;2023-05-10T03:45:30;14.10;99.90
16128;DHT22;8168;49.036;7.690;2023-05-10T03:48:01;14.00;99.90
16128;DHT22;8168;49.036;7.690;2023-05-10T03:50:31;14.00;99.90
16128;DHT22;8168;49.036;7.690;2023-05-10T03:53:02;14.00;99.90
16128;DHT22;8168;49.036;7.690;2023-05-10T03:55:33;13.90;99.90
16128;DHT22;8168;49.036;7.690;2023-05-10T03:58:06;13.90;99.90
16128;DHT22;8168;49.036;7.690;2023-05-10T04:00:36;13.90;99.90
16128;DHT22;8168;49.036;7.690;2023-05-10T04:03:07;13.90;99.90
16128;DHT22;8168;49.036;7.690;2023-05-10T04:05:38;13.90;99.90
16128;DHT22;8168;49.036;7.690;2023-05-10T04:08:09;13.90;99.90
16128;DHT22;8168;49.036;7.690;2023-05-10T04:10:39;13.90;99.90
16128;DHT22;8168;49.036;7.690;2023-05-10T04:13:10;13.90;99.90
16128;DHT22;8168;49.036;7.690;2023-05-10T04:15:41;14.00;99.90
16128;DHT22;8168;49.036;7.690;2023-05-10T04:18:12;13.90;99.90
16128;DHT22;8168;49.036;7.690;2023-05-10T04:20:42;13.90;99.90
16128;DHT22;8168;49.036;7.690;2023-05-10T04:23:13;13.90;99.90
16128;DHT22;8168;49.036;7.690;2023-05-10T04:25:45;13.90;99.90
16128;DHT22;8168;49.036;7.690;2023-05-10T04:28:16;13.90;99.90
16128;DHT22;8168;49.036;7.690;2023-05-10T04:30:46;13.90;99.90
16128;DHT22;8168;49.036;7.690;2023-05-10T04:33:17;13.90;99.90
16128;DHT22;8168;49.036;7.690;2023-05-10T04:35:47;13.90;99.90
16128;DHT22;8168;49.036;7.690;2023-05-10T04:38:18;13.80;99.90
16128;DHT22;8168;49.036;7.690;2023-05-10T04:40:49;13.80;99.90
16128;DHT22;8168;49.036;7.690;2023-05-10T04:43:20;13.80;99.90
16128;DHT22;8168;49.036;7.690;2023-05-10T04:45:50;13.80;99.90
16128;DHT22;8168;49.036;7.690;2023-05-10T04:48:21;13.90;99.90
16128;DHT22;8168;49.036;7.690;2023-05-10T04:50:51;13.90;99.90
16128;DHT22;8168;49.036;7.690;2023-05-10T04:53:22;13.90;99.90
16128;DHT22;8168;49.036;7.690;2023-05-10T04:55:53;13.90;99.90
16128;DHT22;8168;49.036;7.690;2023-05-10T04:58:23;13.90;99.90
16128;DHT22;8168;49.036;7.690;2023-05-10T05:00:54;13.80;99.90
16128;DHT22;8168;49.036;7.690;2023-05-10T05:03:25;13.90;99.90
16128;DHT22;8168;49.036;7.690;2023-05-10T05:05:55;13.90;99.90
16128;DHT22;8168;49.036;7.690;2023-05-10T05:08:26;13.80;99.90
16128;DHT22;8168;49.036;7.690;2023-05-10T05:10:57;13.80;99.90
16128;DHT22;8168;49.036;7.690;2023-05-10T05:13:27;13.80;99.90
16128;DHT22;8168;49.036;7.690;2023-05-10T05:16:00;13.80;99.90
16128;DHT22;8168;49.036;7.690;2023-05-10T05:18:31;13.80;99.90
16128;DHT22;8168;49.036;7.690;2023-05-10T05:21:02;13.80;99.90
16128;DHT22;8168;49.036;7.690;2023-05-10T05:23:33;13.80;99.90
16128;DHT22;8168;49.036;7.690;2023-05-10T05:26:03;13.80;99.90
16128;DHT22;8168;49.036;7.690;2023-05-10T05:28:34;13.80;99.90
16128;DHT22;8168;49.036;7.690;2023-05-10T05:31:07;13.70;99.90
16128;DHT22;8168;49.036;7.690;2023-05-10T05:33:38;13.60;99.90
16128;DHT22;8168;49.036;7.690;2023-05-10T05:36:08;13.70;99.90
16128;DHT22;8168;49.036;7.690;2023-05-10T05:38:39;13.60;99.90
16128;DHT22;8168;49.036;7.690;2023-05-10T05:41:10;13.50;99.90
16128;DHT22;8168;49.036;7.690;2023-05-10T05:43:41;13.60;99.90
16128;DHT22;8168;49.036;7.690;2023-05-10T05:46:11;13.60;99.90
16128;DHT22;8168;49.036;7.690;2023-05-10T05:48:42;13.50;99.90
16128;DHT22;8168;49.036;7.690;2023-05-10T05:51:12;13.50;99.90
16128;DHT22;8168;49.036;7.690;2023-05-10T05:53:43;13.50;99.90
16128;DHT22;8168;49.036;7.690;2023-05-10T05:56:13;13.50;99.90
16128;DHT22;8168;49.036;7.690;2023-05-10T05:58:44;13.50;99.90
16128;DHT22;8168;49.036;7.690;2023-05-10T06:01:15;13.60;99.90
16128;DHT22;8168;49.036;7.690;2023-05-10T06:03:45;13.70;99.90
16128;DHT22;8168;49.036;7.690;2023-05-10T06:06:16;13.70;99.90
16128;DHT22;8168;49.036;7.690;2023-05-10T06:08:46;13.80;99.90
16128;DHT22;8168;49.036;7.690;2023-05-10T06:11:17;13.80;99.90
16128;DHT22;8168;49.036;7.690;2023-05-10T06:13:48;13.80;99.90
16128;DHT22;8168;49.036;7.690;2023-05-10T06:16:18;13.80;99.90
16128;DHT22;8168;49.036;7.690;2023-05-10T06:18:49;13.80;99.90
16128;DHT22;8168;49.036;7.690;2023-05-10T06:21:19;13.80;99.90
16128;DHT22;8168;49.036;7.690;2023-05-10T06:23:50;13.80;99.90
16128;DHT22;8168;49.036;7.690;2023-05-10T06:26:21;13.80;99.90
16128;DHT22;8168;49.036;7.690;2023-05-10T06:28:51;13.80;99.90
16128;DHT22;8168;49.036;7.690;2023-05-10T06:31:22;13.80;99.90
16128;DHT22;8168;49.036;7.690;2023-05-10T06:33:52;13.70;99.90
16128;DHT22;8168;49.036;7.690;2023-05-10T06:36:23;13.80;99.90
16128;DHT22;8168;49.036;7.690;2023-05-10T06:38:56;13.70;99.90
16128;DHT22;8168;49.036;7.690;2023-05-10T06:41:27;13.70;99.90
16128;DHT22;8168;49.036;7.690;2023-05-10T06:43:57;13.80;99.90
16128;DHT22;8168;49.036;7.690;2023-05-10T06:46:28;13.80;99.90
16128;DHT22;8168;49.036;7.690;2023-05-10T06:48:59;13.80;99.90
16128;DHT22;8168;49.036;7.690;2023-05-10T06:51:29;13.80;99.90
16128;DHT22;8168;49.036;7.690;2023-05-10T06:54:00;13.80;99.90
16128;DHT22;8168;49.036;7.690;2023-05-10T06:56:31;13.80;99.90
16128;DHT22;8168;49.036;7.690;2023-05-10T06:59:02;13.80;99.90
16128;DHT22;8168;49.036;7.690;2023-05-10T07:01:33;13.80;99.90
16128;DHT22;8168;49.036;7.690;2023-05-10T07:04:03;13.80;99.90
16128;DHT22;8168;49.036;7.690;2023-05-10T07:06:34;13.80;99.90
16128;DHT22;8168;49.036;7.690;2023-05-10T07:09:05;13.80;99.90
16128;DHT22;8168;49.036;7.690;2023-05-10T07:11:35;13.80;99.90
16128;DHT22;8168;49.036;7.690;2023-05-10T07:14:07;13.80;99.90
16128;DHT22;8168;49.036;7.690;2023-05-10T07:16:38;13.80;99.90
16128;DHT22;8168;49.036;7.690;2023-05-10T07:19:08;13.70;99.90
16128;DHT22;8168;49.036;7.690;2023-05-10T07:21:39;13.70;99.90
16128;DHT22;8168;49.036;7.690;2023-05-10T07:24:12;13.70;99.90
16128;DHT22;8168;49.036;7.690;2023-05-10T07:26:43;13.80;99.90
16128;DHT22;8168;49.036;7.690;2023-05-10T07:29:14;13.90;99.90
16128;DHT22;8168;49.036;7.690;2023-05-10T07:31:44;13.90;99.90
16128;DHT22;8168;49.036;7.690;2023-05-10T07:34:15;13.90;99.90
16128;DHT22;8168;49.036;7.690;2023-05-10T07:36:46;14.00;99.90
16128;DHT22;8168;49.036;7.690;2023-05-10T07:39:16;13.90;99.90
16128;DHT22;8168;49.036;7.690;2023-05-10T07:41:47;14.00;99.90
16128;DHT22;8168;49.036;7.690;2023-05-10T07:44:18;14.00;99.90
16128;DHT22;8168;49.036;7.690;2023-05-10T07:46:49;13.90;99.90
16128;DHT22;8168;49.036;7.690;2023-05-10T07:49:20;13.90;99.90
16128;DHT22;8168;49.036;7.690;2023-05-10T07:51:50;13.90;99.90
16128;DHT22;8168;49.036;7.690;2023-05-10T07:54:21;13.90;99.90
16128;DHT22;8168;49.036;7.690;2023-05-10T07:56:52;13.90;99.90
16128;DHT22;8168;49.036;7.690;2023-05-10T07:59:22;14.00;99.90
16128;DHT22;8168;49.036;7.690;2023-05-10T08:01:53;14.00;99.90
16128;DHT22;8168;49.036;7.690;2023-05-10T08:04:23;14.00;99.90
16128;DHT22;8168;49.036;7.690;2023-05-10T08:06:54;14.00;99.90
16128;DHT22;8168;49.036;7.690;2023-05-10T08:09:25;14.00;99.90
16128;DHT22;8168;49.036;7.690;2023-05-10T08:11:55;14.00;99.90
16128;DHT22;8168;49.036;7.690;2023-05-10T08:14:28;14.00;99.90
16128;DHT22;8168;49.036;7.690;2023-05-10T08:16:59;14.00;99.90
16128;DHT22;8168;49.036;7.690;2023-05-10T08:19:30;14.00;99.90
16128;DHT22;8168;49.036;7.690;2023-05-10T08:22:00;14.00;99.90
16128;DHT22;8168;49.036;7.690;2023-05-10T08:24:31;14.00;99.90
16128;DHT22;8168;49.036;7.690;2023-05-10T08:27:02;13.90;99.90
16128;DHT22;8168;49.036;7.690;2023-05-10T08:29:32;14.00;99.90
16128;DHT22;8168;49.036;7.690;2023-05-10T08:32:03;14.00;99.90
16128;DHT22;8168;49.036;7.690;2023-05-10T08:34:34;14.10;99.90
16128;DHT22;8168;49.036;7.690;2023-05-10T08:37:04;14.10;99.90
16128;DHT22;8168;49.036;7.690;2023-05-10T08:39:35;14.10;99.90
16128;DHT22;8168;49.036;7.690;2023-05-10T08:42:06;14.10;99.90
16128;DHT22;8168;49.036;7.690;2023-05-10T08:44:38;14.10;99.90
16128;DHT22;8168;49.036;7.690;2023-05-10T08:47:10;14.20;99.90
16128;DHT22;8168;49.036;7.690;2023-05-10T08:49:41;14.10;99.90
16128;DHT22;8168;49.036;7.690;2023-05-10T08:52:15;14.10;99.90
16128;DHT22;8168;49.036;7.690;2023-05-10T08:54:47;14.10;99.90
16128;DHT22;8168;49.036;7.690;2023-05-10T08:57:19;14.10;99.90
16128;DHT22;8168;49.036;7.690;2023-05-10T08:59:50;14.20;99.90
16128;DHT22;8168;49.036;7.690;2023-05-10T09:02:21;14.10;99.90
16128;DHT22;8168;49.036;7.690;2023-05-10T09:04:52;14.20;99.90
16128;DHT22;8168;49.036;7.690;2023-05-10T09:07:23;14.20;99.90
16128;DHT22;8168;49.036;7.690;2023-05-10T09:09:54;14.20;99.90
16128;DHT22;8168;49.036;7.690;2023-05-10T09:12:25;14.30;99.90
16128;DHT22;8168;49.036;7.690;2023-05-10T09:14:55;14.40;99.90
16128;DHT22;8168;49.036;7.690;2023-05-10T09:17:29;14.50;99.90
16128;DHT22;8168;49.036;7.690;2023-05-10T09:20:01;14.50;99.90
16128;DHT22;8168;49.036;7.690;2023-05-10T09:22:32;14.50;99.90
16128;DHT22;8168;49.036;7.690;2023-05-10T09:25:13;14.30;99.90
16128;DHT22;8168;49.036;7.690;2023-05-10T09:27:45;14.30;99.90
16128;DHT22;8168;49.036;7.690;2023-05-10T09:32:48;14.10;99.90
16128;DHT22;8168;49.036;7.690;2023-05-10T09:35:21;13.90;99.90
16128;DHT22;8168;49.036;7.690;2023-05-10T09:37:55;13.80;99.90
16128;DHT22;8168;49.036;7.690;2023-05-10T09:40:27;13.80;99.90
16128;DHT22;8168;49.036;7.690;2023-05-10T09:45:33;16.50;99.90
16128;DHT22;8168;49.036;7.690;2023-05-10T09:48:05;13.90;99.90
16128;DHT22;8168;49.036;7.690;2023-05-10T09:50:36;14.00;99.90
16128;DHT22;8168;49.036;7.690;2023-05-10T09:53:06;14.00;99.90
16128;DHT22;8168;49.036;7.690;2023-05-10T09:55:45;14.10;99.90
16128;DHT22;8168;49.036;7.690;2023-05-10T09:58:16;14.10;99.90
16128;DHT22;8168;49.036;7.690;2023-05-10T10:00:47;14.20;99.90
16128;DHT22;8168;49.036;7.690;2023-05-10T10:03:21;14.20;99.90
16128;DHT22;8168;49.036;7.690;2023-05-10T10:05:52;14.20;99.90
16128;DHT22;8168;49.036;7.690;2023-05-10T10:08:26;14.20;99.90
16128;DHT22;8168;49.036;7.690;2023-05-10T10:10:57;14.30;99.90
16128;DHT22;8168;49.036;7.690;2023-05-10T10:13:28;14.30;99.90
16128;DHT22;8168;49.036;7.690;2023-05-10T10:16:00;14.40;99.90
16128;DHT22;8168;49.036;7.690;2023-05-10T10:18:30;14.40;99.90
16128;DHT22;8168;49.036;7.690;2023-05-10T10:21:01;14.50;99.90
16128;DHT22;8168;49.036;7.690;2023-05-10T10:23:32;14.60;99.90
16128;DHT22;8168;49.036;7.690;2023-05-10T10:26:04;14.60;99.90
16128;DHT22;8168;49.036;7.690;2023-05-10T10:34:28;14.70;99.90
16128;DHT22;8168;49.036;7.690;2023-05-10T10:37:04;14.80;99.90
16128;DHT22;8168;49.036;7.690;2023-05-10T10:39:35;14.70;99.90
16128;DHT22;8168;49.036;7.690;2023-05-10T10:42:06;14.70;99.90
16128;DHT22;8168;49.036;7.690;2023-05-10T10:44:38;14.70;99.90
16128;DHT22;8168;49.036;7.690;2023-05-10T10:52:40;14.70;99.90
16128;DHT22;8168;49.036;7.690;2023-05-10T10:55:12;14.70;99.90
16128;DHT22;8168;49.036;7.690;2023-05-10T11:00:29;14.70;99.90
16128;DHT22;8168;49.036;7.690;2023-05-10T11:05:49;14.70;99.90
16128;DHT22;8168;49.036;7.690;2023-05-10T11:08:30;14.80;99.90
16128;DHT22;8168;49.036;7.690;2023-05-10T11:16:24;15.00;99.90
16128;DHT22;8168;49.036;7.690;2023-05-10T11:19:04;15.20;99.90
16128;DHT22;8168;49.036;7.690;2023-05-10T11:21:52;15.40;99.90
16128;DHT22;8168;49.036;7.690;2023-05-10T11:24:56;15.50;99.90
16128;DHT22;8168;49.036;7.690;2023-05-10T11:27:27;15.50;99.90
16128;DHT22;8168;49.036;7.690;2023-05-10T11:29:57;15.60;99.90
16128;DHT22;8168;49.036;7.690;2023-05-10T11:32:29;15.60;99.90
16128;DHT22;8168;49.036;7.690;2023-05-10T11:35:07;15.70;99.90
16128;DHT22;8168;49.036;7.690;2023-05-10T11:37:39;15.70;99.90
16128;DHT22;8168;49.036;7.690;2023-05-10T11:40:13;15.70;99.90
16128;DHT22;8168;49.036;7.690;2023-05-10T11:42:45;15.60;99.90
16128;DHT22;8168;49.036;7.690;2023-05-10T11:45:15;15.70;99.90
16128;DHT22;8168;49.036;7.690;2023-05-10T11:47:48;15.80;99.90
16128;DHT22;8168;49.036;7.690;2023-05-10T11:50:19;15.80;99.90
16128;DHT22;8168;49.036;7.690;2023-05-10T11:52:53;15.80;99.90
16128;DHT22;8168;49.036;7.690;2023-05-10T11:55:24;15.60;99.90
16128;DHT22;8168;49.036;7.690;2023-05-10T11:57:55;15.60;99.90
16128;DHT22;8168;49.036;7.690;2023-05-10T12:00:25;15.60;99.90
16128;DHT22;8168;49.036;7.690;2023-05-10T12:02:56;15.60;99.90
16128;DHT22;8168;49.036;7.690;2023-05-10T12:05:28;15.70;99.90
16128;DHT22;8168;49.036;7.690;2023-05-10T12:08:15;15.70;99.90
16128;DHT22;8168;49.036;7.690;2023-05-10T12:10:46;15.70;99.90
16128;DHT22;8168;49.036;7.690;2023-05-10T12:13:17;15.70;99.90
16128;DHT22;8168;49.036;7.690;2023-05-10T12:15:49;15.70;99.90
16128;DHT22;8168;49.036;7.690;2023-05-10T12:18:23;15.80;99.90
16128;DHT22;8168;49.036;7.690;2023-05-10T12:21:03;15.90;99.90
16128;DHT22;8168;49.036;7.690;2023-05-10T12:23:33;16.20;99.90
16128;DHT22;8168;49.036;7.690;2023-05-10T12:26:04;16.30;99.90
16128;DHT22;8168;49.036;7.690;2023-05-10T12:28:36;16.20;99.90
16128;DHT22;8168;49.036;7.690;2023-05-10T12:31:10;16.30;99.90
16128;DHT22;8168;49.036;7.690;2023-05-10T12:33:45;16.30;99.90
16128;DHT22;8168;49.036;7.690;2023-05-10T12:36:16;16.20;99.90
16128;DHT22;8168;49.036;7.690;2023-05-10T12:39:02;16.20;99.90
16128;DHT22;8168;49.036;7.690;2023-05-10T12:41:33;16.20;99.90
16128;DHT22;8168;49.036;7.690;2023-05-10T12:44:03;16.40;99.90
16128;DHT22;8168;49.036;7.690;2023-05-10T12:46:34;16.50;99.90
16128;DHT22;8168;49.036;7.690;2023-05-10T12:49:04;16.70;99.90
16128;DHT22;8168;49.036;7.690;2023-05-10T12:51:35;16.80;99.90
16128;DHT22;8168;49.036;7.690;2023-05-10T12:54:06;16.70;99.90
16128;DHT22;8168;49.036;7.690;2023-05-10T12:56:36;16.60;99.90
16128;DHT22;8168;49.036;7.690;2023-05-10T12:59:07;16.70;99.90
16128;DHT22;8168;49.036;7.690;2023-05-10T13:01:38;16.70;99.90
16128;DHT22;8168;49.036;7.690;2023-05-10T13:04:08;16.80;99.90
16128;DHT22;8168;49.036;7.690;2023-05-10T13:06:39;17.00;99.90
16128;DHT22;8168;49.036;7.690;2023-05-10T13:09:09;17.00;99.90
16128;DHT22;8168;49.036;7.690;2023-05-10T13:11:40;17.10;99.90
16128;DHT22;8168;49.036;7.690;2023-05-10T13:14:11;17.30;99.90
16128;DHT22;8168;49.036;7.690;2023-05-10T13:16:41;17.30;99.90
16128;DHT22;8168;49.036;7.690;2023-05-10T13:19:13;17.30;99.90
16128;DHT22;8168;49.036;7.690;2023-05-10T13:21:44;17.30;99.90
16128;DHT22;8168;49.036;7.690;2023-05-10T13:24:14;17.30;99.90
16128;DHT22;8168;49.036;7.690;2023-05-10T13:26:45;17.40;99.90
16128;DHT22;8168;49.036;7.690;2023-05-10T13:29:16;17.40;99.90
16128;DHT22;8168;49.036;7.690;2023-05-10T13:31:48;17.40;99.90
16128;DHT22;8168;49.036;7.690;2023-05-10T13:34:19;17.30;99.90
16128;DHT22;8168;49.036;7.690;2023-05-10T13:36:50;17.30;99.90
16128;DHT22;8168;49.036;7.690;2023-05-10T13:39:22;17.30;99.90
16128;DHT22;8168;49.036;7.690;2023-05-10T13:41:52;17.40;99.90
16128;DHT22;8168;49.036;7.690;2023-05-10T13:44:23;17.60;99.90
16128;DHT22;8168;49.036;7.690;2023-05-10T13:46:54;17.70;99.90
16128;DHT22;8168;49.036;7.690;2023-05-10T13:49:24;17.70;99.90
16128;DHT22;8168;49.036;7.690;2023-05-10T13:51:55;17.70;99.90
16128;DHT22;8168;49.036;7.690;2023-05-10T13:54:25;17.70;99.90
16128;DHT22;8168;49.036;7.690;2023-05-10T13:56:59;17.40;99.90
16128;DHT22;8168;49.036;7.690;2023-05-10T13:59:30;17.30;99.90
16128;DHT22;8168;49.036;7.690;2023-05-10T14:02:04;17.30;99.90
16128;DHT22;8168;49.036;7.690;2023-05-10T14:04:34;17.30;99.90
16128;DHT22;8168;49.036;7.690;2023-05-10T14:07:05;17.20;99.90
16128;DHT22;8168;49.036;7.690;2023-05-10T14:09:36;17.10;99.90
16128;DHT22;8168;49.036;7.690;2023-05-10T14:12:07;17.10;99.90
16128;DHT22;8168;49.036;7.690;2023-05-10T14:14:37;17.10;99.90
16128;DHT22;8168;49.036;7.690;2023-05-10T14:17:08;17.10;99.90
16128;DHT22;8168;49.036;7.690;2023-05-10T14:19:38;17.10;99.90
16128;DHT22;8168;49.036;7.690;2023-05-10T14:22:09;17.00;99.90
16128;DHT22;8168;49.036;7.690;2023-05-10T14:24:40;16.80;99.90
16128;DHT22;8168;49.036;7.690;2023-05-10T14:27:11;16.70;99.90
16128;DHT22;8168;49.036;7.690;2023-05-10T14:29:42;16.70;99.90
16128;DHT22;8168;49.036;7.690;2023-05-10T14:32:12;16.60;99.90
16128;DHT22;8168;49.036;7.690;2023-05-10T14:34:43;16.50;99.90
16128;DHT22;8168;49.036;7.690;2023-05-10T14:37:14;16.40;99.90
16128;DHT22;8168;49.036;7.690;2023-05-10T14:39:45;16.30;99.90
16128;DHT22;8168;49.036;7.690;2023-05-10T14:42:16;16.00;99.90
16128;DHT22;8168;49.036;7.690;2023-05-10T14:44:47;15.80;99.90
16128;DHT22;8168;49.036;7.690;2023-05-10T14:47:17;15.50;99.90
16128;DHT22;8168;49.036;7.690;2023-05-10T14:49:48;15.40;99.90
16128;DHT22;8168;49.036;7.690;2023-05-10T14:52:18;15.40;99.90
16128;DHT22;8168;49.036;7.690;2023-05-10T14:54:49;15.40;99.90
16128;DHT22;8168;49.036;7.690;2023-05-10T14:57:19;15.50;99.90
16128;DHT22;8168;49.036;7.690;2023-05-10T14:59:50;15.60;99.90
16128;DHT22;8168;49.036;7.690;2023-05-10T15:02:21;15.80;99.90
16128;DHT22;8168;49.036;7.690;2023-05-10T15:04:51;16.00;99.90
16128;DHT22;8168;49.036;7.690;2023-05-10T15:07:22;16.10;99.90
16128;DHT22;8168;49.036;7.690;2023-05-10T15:09:53;16.20;99.90
16128;DHT22;8168;49.036;7.690;2023-05-10T15:12:24;16.10;99.90
16128;DHT22;8168;49.036;7.690;2023-05-10T15:14:55;16.10;99.90
16128;DHT22;8168;49.036;7.690;2023-05-10T15:17:25;16.20;99.90
16128;DHT22;8168;49.036;7.690;2023-05-10T15:19:56;16.30;99.90
16128;DHT22;8168;49.036;7.690;2023-05-10T15:22:26;16.50;99.90
16128;DHT22;8168;49.036;7.690;2023-05-10T15:24:59;16.50;99.90
16128;DHT22;8168;49.036;7.690;2023-05-10T15:27:29;16.60;99.90
16128;DHT22;8168;49.036;7.690;2023-05-10T15:30:00;16.80;99.90
16128;DHT22;8168;49.036;7.690;2023-05-10T15:32:30;16.90;99.90
16128;DHT22;8168;49.036;7.690;2023-05-10T15:35:01;16.90;99.90
16128;DHT22;8168;49.036;7.690;2023-05-10T15:37:32;16.90;99.90
16128;DHT22;8168;49.036;7.690;2023-05-10T15:40:04;16.90;99.90
16128;DHT22;8168;49.036;7.690;2023-05-10T15:42:34;16.90;99.90
16128;DHT22;8168;49.036;7.690;2023-05-10T15:45:06;17.00;99.90
16128;DHT22;8168;49.036;7.690;2023-05-10T15:47:36;17.10;99.90
16128;DHT22;8168;49.036;7.690;2023-05-10T15:50:09;17.00;99.90
16128;DHT22;8168;49.036;7.690;2023-05-10T15:52:40;17.00;99.90
16128;DHT22;8168;49.036;7.690;2023-05-10T15:55:14;17.00;99.90
16128;DHT22;8168;49.036;7.690;2023-05-10T15:57:45;17.00;99.90
16128;DHT22;8168;49.036;7.690;2023-05-10T16:00:16;17.00;99.90
16128;DHT22;8168;49.036;7.690;2023-05-10T16:02:47;16.90;99.90
16128;DHT22;8168;49.036;7.690;2023-05-10T16:05:17;16.80;99.90
16128;DHT22;8168;49.036;7.690;2023-05-10T16:07:48;16.90;99.90
16128;DHT22;8168;49.036;7.690;2023-05-10T16:10:19;16.90;99.90
16128;DHT22;8168;49.036;7.690;2023-05-10T16:12:49;16.80;99.90
16128;DHT22;8168;49.036;7.690;2023-05-10T16:15:20;16.70;99.90
16128;DHT22;8168;49.036;7.690;2023-05-10T16:17:51;16.60;99.90
16128;DHT22;8168;49.036;7.690;2023-05-10T16:20:22;16.50;99.90
16128;DHT22;8168;49.036;7.690;2023-05-10T16:22:53;16.30;99.90
16128;DHT22;8168;49.036;7.690;2023-05-10T16:25:23;16.20;99.90
16128;DHT22;8168;49.036;7.690;2023-05-10T16:27:54;16.00;99.90
16128;DHT22;8168;49.036;7.690;2023-05-10T16:30:25;15.90;99.90
16128;DHT22;8168;49.036;7.690;2023-05-10T16:32:57;15.90;99.90
16128;DHT22;8168;49.036;7.690;2023-05-10T16:35:28;15.80;99.90
16128;DHT22;8168;49.036;7.690;2023-05-10T16:37:59;15.80;99.90
16128;DHT22;8168;49.036;7.690;2023-05-10T16:40:32;15.80;99.90
16128;DHT22;8168;49.036;7.690;2023-05-10T16:43:02;15.70;99.90
16128;DHT22;8168;49.036;7.690;2023-05-10T16:45:33;15.70;99.90
16128;DHT22;8168;49.036;7.690;2023-05-10T16:48:04;15.60;99.90
16128;DHT22;8168;49.036;7.690;2023-05-10T16:50:35;15.60;99.90
16128;DHT22;8168;49.036;7.690;2023-05-10T16:53:05;15.60;99.90
16128;DHT22;8168;49.036;7.690;2023-05-10T16:55:36;15.70;99.90
16128;DHT22;8168;49.036;7.690;2023-05-10T16:58:07;15.70;99.90